sensor_id;sensor_type;location;lat;lon;timestamp;temperature;humidity
37408;DHT22;24866;50.248;8.252;2023-04-15T00:00:43;3.40;99.90
37408;DHT22;24866;50.248;8.252;2023-04-15T00:03:13;3.10;12.70
37408;DHT22;24866;50.248;8.252;2023-04-15T00:05:43;3.00;99.90
37408;DHT22;24866;50.248;8.252;2023-04-15T00:08:14;3.50;1.00
37408;DHT22;24866;50.248;8.252;2023-04-15T00:10:44;3.80;1.00
37408;DHT22;24866;50.248;8.252;2023-04-15T00:13:14;3.90;99.90
37408;DHT22;24866;50.248;8.252;2023-04-15T00:15:45;3.60;99.90
37408;DHT22;24866;50.248;8.252;2023-04-15T00:18:16;3.60;99.90
37408;DHT22;24866;50.248;8.252;2023-04-15T00:20:46;3.70;14.90
37408;DHT22;24866;50.248;8.252;2023-04-15T00:23:16;3.90;1.00
37408;DHT22;24866;50.248;8.252;2023-04-15T00:25:46;3.90;1.00
37408;DHT22;24866;50.248;8.252;2023-04-15T00:28:16;3.70;99.90
37408;DHT22;24866;50.248;8.252;2023-04-15T00:30:49;3.50;99.90
37408;DHT22;24866;50.248;8.252;2023-04-15T00:33:19;3.50;1.00
37408;DHT22;24866;50.248;8.252;2023-04-15T00:35:49;3.30;99.90
37408;DHT22;24866;50.248;8.252;2023-04-15T00:38:19;3.40;1.00
37408;DHT22;24866;50.248;8.252;2023-04-15T00:40:50;3.40;1.00
37408;DHT22;24866;50.248;8.252;2023-04-15T00:43:21;3.00;1.00
37408;DHT22;24866;50.248;8.252;2023-04-15T00:45:58;3.20;1.00
37408;DHT22;24866;50.248;8.252;2023-04-15T00:48:28;3.30;1.00
37408;DHT22;24866;50.248;8.252;2023-04-15T00:50:59;3.40;1.00
37408;DHT22;24866;50.248;8.252;2023-04-15T00:53:29;3.60;1.00
37408;DHT22;24866;50.248;8.252;2023-04-15T00:55:59;3.50;1.00
37408;DHT22;24866;50.248;8.252;2023-04-15T00:58:29;3.40;99.90
37408;DHT22;24866;50.248;8.252;2023-04-15T01:01:01;3.20;99.90
37408;DHT22;24866;50.248;8.252;2023-04-15T01:03:32;3.10;99.90
37408;DHT22;24866;50.248;8.252;2023-04-15T01:06:02;3.00;1.00
37408;DHT22;24866;50.248;8.252;2023-04-15T01:08:33;3.30;1.00
37408;DHT22;24866;50.248;8.252;2023-04-15T01:11:03;3.60;1.00
37408;DHT22;24866;50.248;8.252;2023-04-15T01:13:34;3.40;1.00
37408;DHT22;24866;50.248;8.252;2023-04-15T01:16:07;3.40;1.00
37408;DHT22;24866;50.248;8.252;2023-04-15T01:18:37;3.50;99.90
37408;DHT22;24866;50.248;8.252;2023-04-15T01:21:08;3.60;99.90
37408;DHT22;24866;50.248;8.252;2023-04-15T01:23:39;3.50;99.90
37408;DHT22;24866;50.248;8.252;2023-04-15T01:26:10;3.60;83.20
37408;DHT22;24866;50.248;8.252;2023-04-15T01:28:40;3.40;1.00
37408;DHT22;24866;50.248;8.252;2023-04-15T01:31:12;3.40;1.00
37408;DHT22;24866;50.248;8.252;2023-04-15T01:33:43;3.20;33.70
37408;DHT22;24866;50.248;8.252;2023-04-15T01:36:13;3.20;99.90
37408;DHT22;24866;50.248;8.252;2023-04-15T01:38:43;3.10;99.90
37408;DHT22;24866;50.248;8.252;2023-04-15T01:41:20;2.90;99.90
37408;DHT22;24866;50.248;8.252;2023-04-15T01:43:51;2.90;1.00
37408;DHT22;24866;50.248;8.252;2023-04-15T01:46:22;2.80;1.00
37408;DHT22;24866;50.248;8.252;2023-04-15T01:48:52;3.00;1.00
37408;DHT22;24866;50.248;8.252;2023-04-15T01:51:22;3.10;1.00
37408;DHT22;24866;50.248;8.252;2023-04-15T01:53:52;3.20;1.00
37408;DHT22;24866;50.248;8.252;2023-04-15T01:56:25;3.10;1.00
37408;DHT22;24866;50.248;8.252;2023-04-15T01:58:55;2.90;1.00
37408;DHT22;24866;50.248;8.252;2023-04-15T02:01:25;3.00;1.00
37408;DHT22;24866;50.248;8.252;2023-04-15T02:03:56;2.80;1.00
37408;DHT22;24866;50.248;8.252;2023-04-15T02:06:26;2.80;1.00
37408;DHT22;24866;50.248;8.252;2023-04-15T02:08:57;2.90;1.00
37408;DHT22;24866;50.248;8.252;2023-04-15T02:11:29;2.80;1.00
37408;DHT22;24866;50.248;8.252;2023-04-15T02:13:58;2.70;1.00
37408;DHT22;24866;50.248;8.252;2023-04-15T02:16:28;2.70;1.00
37408;DHT22;24866;50.248;8.252;2023-04-15T02:18:59;2.70;1.00
37408;DHT22;24866;50.248;8.252;2023-04-15T02:21:29;2.70;1.00
37408;DHT22;24866;50.248;8.252;2023-04-15T02:23:59;2.80;1.00
37408;DHT22;24866;50.248;8.252;2023-04-15T02:26:31;2.80;1.00
37408;DHT22;24866;50.248;8.252;2023-04-15T02:29:01;2.70;1.00
37408;DHT22;24866;50.248;8.252;2023-04-15T02:31:31;3.00;1.00
37408;DHT22;24866;50.248;8.252;2023-04-15T02:34:04;2.80;1.00
37408;DHT22;24866;50.248;8.252;2023-04-15T02:36:34;2.80;1.00
37408;DHT22;24866;50.248;8.252;2023-04-15T02:39:04;2.90;1.00
37408;DHT22;24866;50.248;8.252;2023-04-15T02:41:37;2.80;1.00
37408;DHT22;24866;50.248;8.252;2023-04-15T02:44:08;2.80;1.00
37408;DHT22;24866;50.248;8.252;2023-04-15T02:46:40;2.70;1.00
37408;DHT22;24866;50.248;8.252;2023-04-15T02:49:10;2.80;1.00
37408;DHT22;24866;50.248;8.252;2023-04-15T02:51:40;2.80;1.00
37408;DHT22;24866;50.248;8.252;2023-04-15T02:54:10;2.70;1.00
37408;DHT22;24866;50.248;8.252;2023-04-15T02:56:42;2.70;1.00
37408;DHT22;24866;50.248;8.252;2023-04-15T02:59:12;2.60;1.00
37408;DHT22;24866;50.248;8.252;2023-04-15T03:01:42;2.70;1.00
37408;DHT22;24866;50.248;8.252;2023-04-15T03:04:12;2.60;1.00
37408;DHT22;24866;50.248;8.252;2023-04-15T03:06:42;2.40;1.00
37408;DHT22;24866;50.248;8.252;2023-04-15T03:09:11;2.10;1.00
37408;DHT22;24866;50.248;8.252;2023-04-15T03:11:43;2.30;1.00
37408;DHT22;24866;50.248;8.252;2023-04-15T03:14:13;2.60;1.00
37408;DHT22;24866;50.248;8.252;2023-04-15T03:16:43;2.50;1.00
37408;DHT22;24866;50.248;8.252;2023-04-15T03:19:13;2.60;1.00
37408;DHT22;24866;50.248;8.252;2023-04-15T03:21:43;2.60;1.00
37408;DHT22;24866;50.248;8.252;2023-04-15T03:24:13;2.50;1.00
37408;DHT22;24866;50.248;8.252;2023-04-15T03:26:44;2.30;1.00
37408;DHT22;24866;50.248;8.252;2023-04-15T03:29:14;2.20;1.00
37408;DHT22;24866;50.248;8.252;2023-04-15T03:31:44;2.10;1.00
37408;DHT22;24866;50.248;8.252;2023-04-15T03:34:14;1.90;1.00
37408;DHT22;24866;50.248;8.252;2023-04-15T03:36:45;2.00;1.00
37408;DHT22;24866;50.248;8.252;2023-04-15T03:39:15;2.20;30.80
37408;DHT22;24866;50.248;8.252;2023-04-15T03:41:46;2.30;46.50
37408;DHT22;24866;50.248;8.252;2023-04-15T03:44:16;2.30;12.60
37408;DHT22;24866;50.248;8.252;2023-04-15T03:46:47;2.30;1.00
37408;DHT22;24866;50.248;8.252;2023-04-15T03:49:17;2.30;1.00
37408;DHT22;24866;50.248;8.252;2023-04-15T03:51:47;2.20;1.00
37408;DHT22;24866;50.248;8.252;2023-04-15T03:54:17;2.00;1.00
37408;DHT22;24866;50.248;8.252;2023-04-15T03:56:48;2.10;21.80
37408;DHT22;24866;50.248;8.252;2023-04-15T03:59:22;2.20;49.50
37408;DHT22;24866;50.248;8.252;2023-04-15T04:01:53;2.20;67.60
37408;DHT22;24866;50.248;8.252;2023-04-15T04:04:23;2.20;78.60
37408;DHT22;24866;50.248;8.252;2023-04-15T04:06:53;2.20;99.00
37408;DHT22;24866;50.248;8.252;2023-04-15T04:09:23;2.20;99.90
37408;DHT22;24866;50.248;8.252;2023-04-15T04:11:55;2.30;86.70
37408;DHT22;24866;50.248;8.252;2023-04-15T04:14:25;2.40;61.10
37408;DHT22;24866;50.248;8.252;2023-04-15T04:16:58;2.10;1.00
37408;DHT22;24866;50.248;8.252;2023-04-15T04:19:30;1.90;61.40
37408;DHT22;24866;50.248;8.252;2023-04-15T04:22:00;2.00;99.90
37408;DHT22;24866;50.248;8.252;2023-04-15T04:24:30;2.20;99.90
37408;DHT22;24866;50.248;8.252;2023-04-15T04:27:02;2.40;99.90
37408;DHT22;24866;50.248;8.252;2023-04-15T04:29:32;2.40;82.30
37408;DHT22;24866;50.248;8.252;2023-04-15T04:32:03;2.40;65.50
37408;DHT22;24866;50.248;8.252;2023-04-15T04:34:35;2.40;37.40
37408;DHT22;24866;50.248;8.252;2023-04-15T04:37:05;2.40;23.20
37408;DHT22;24866;50.248;8.252;2023-04-15T04:39:36;2.20;16.20
37408;DHT22;24866;50.248;8.252;2023-04-15T04:42:10;1.90;57.70
37408;DHT22;24866;50.248;8.252;2023-04-15T04:44:40;1.80;99.90
37408;DHT22;24866;50.248;8.252;2023-04-15T04:47:10;1.70;99.90
37408;DHT22;24866;50.248;8.252;2023-04-15T04:49:41;1.80;99.90
37408;DHT22;24866;50.248;8.252;2023-04-15T04:52:11;1.90;99.90
37408;DHT22;24866;50.248;8.252;2023-04-15T04:54:41;1.70;99.90
37408;DHT22;24866;50.248;8.252;2023-04-15T04:57:12;1.90;99.90
37408;DHT22;24866;50.248;8.252;2023-04-15T04:59:42;2.20;99.90
37408;DHT22;24866;50.248;8.252;2023-04-15T05:02:12;2.30;99.90
37408;DHT22;24866;50.248;8.252;2023-04-15T05:04:42;2.10;99.90
37408;DHT22;24866;50.248;8.252;2023-04-15T05:07:13;1.90;99.90
37408;DHT22;24866;50.248;8.252;2023-04-15T05:09:43;1.90;99.90
37408;DHT22;24866;50.248;8.252;2023-04-15T05:12:15;1.80;99.90
37408;DHT22;24866;50.248;8.252;2023-04-15T05:14:46;2.00;99.90
37408;DHT22;24866;50.248;8.252;2023-04-15T05:17:16;2.10;99.90
37408;DHT22;24866;50.248;8.252;2023-04-15T05:19:46;2.00;99.90
37408;DHT22;24866;50.248;8.252;2023-04-15T05:22:16;2.00;99.90
37408;DHT22;24866;50.248;8.252;2023-04-15T05:24:46;2.00;99.90
37408;DHT22;24866;50.248;8.252;2023-04-15T05:27:18;2.10;99.90
37408;DHT22;24866;50.248;8.252;2023-04-15T05:29:50;2.10;99.90
37408;DHT22;24866;50.248;8.252;2023-04-15T05:32:22;1.90;99.90
37408;DHT22;24866;50.248;8.252;2023-04-15T05:34:52;2.10;99.90
37408;DHT22;24866;50.248;8.252;2023-04-15T05:37:23;2.20;99.90
37408;DHT22;24866;50.248;8.252;2023-04-15T05:39:53;2.30;99.90
37408;DHT22;24866;50.248;8.252;2023-04-15T05:42:26;2.30;99.90
37408;DHT22;24866;50.248;8.252;2023-04-15T05:45:06;2.30;99.90
37408;DHT22;24866;50.248;8.252;2023-04-15T05:47:37;2.20;99.90
37408;DHT22;24866;50.248;8.252;2023-04-15T05:50:08;2.30;99.90
37408;DHT22;24866;50.248;8.252;2023-04-15T05:52:39;2.30;99.90
37408;DHT22;24866;50.248;8.252;2023-04-15T05:55:09;2.30;99.90
37408;DHT22;24866;50.248;8.252;2023-04-15T05:57:41;2.50;99.90
37408;DHT22;24866;50.248;8.252;2023-04-15T06:00:15;2.20;99.90
37408;DHT22;24866;50.248;8.252;2023-04-15T06:02:55;2.00;99.90
37408;DHT22;24866;50.248;8.252;2023-04-15T06:05:26;1.80;99.90
37408;DHT22;24866;50.248;8.252;2023-04-15T06:07:56;2.10;99.90
37408;DHT22;24866;50.248;8.252;2023-04-15T06:10:27;2.30;99.90
37408;DHT22;24866;50.248;8.252;2023-04-15T06:12:58;2.50;99.90
37408;DHT22;24866;50.248;8.252;2023-04-15T06:15:28;2.70;99.90
37408;DHT22;24866;50.248;8.252;2023-04-15T06:17:58;2.70;99.90
37408;DHT22;24866;50.248;8.252;2023-04-15T06:20:29;2.80;99.90
37408;DHT22;24866;50.248;8.252;2023-04-15T06:22:59;2.90;99.90
37408;DHT22;24866;50.248;8.252;2023-04-15T06:25:30;2.90;99.90
37408;DHT22;24866;50.248;8.252;2023-04-15T06:28:05;3.00;99.90
37408;DHT22;24866;50.248;8.252;2023-04-15T06:30:35;3.10;99.90
37408;DHT22;24866;50.248;8.252;2023-04-15T06:33:06;3.20;99.90
37408;DHT22;24866;50.248;8.252;2023-04-15T06:35:36;3.30;99.90
37408;DHT22;24866;50.248;8.252;2023-04-15T06:38:07;3.30;99.90
37408;DHT22;24866;50.248;8.252;2023-04-15T06:40:37;3.40;99.90
37408;DHT22;24866;50.248;8.252;2023-04-15T06:43:08;3.50;99.90
37408;DHT22;24866;50.248;8.252;2023-04-15T06:45:39;3.60;99.90
37408;DHT22;24866;50.248;8.252;2023-04-15T06:48:13;3.60;99.90
37408;DHT22;24866;50.248;8.252;2023-04-15T06:50:48;3.60;99.90
37408;DHT22;24866;50.248;8.252;2023-04-15T06:53:18;3.70;99.90
37408;DHT22;24866;50.248;8.252;2023-04-15T06:55:48;3.90;99.90
37408;DHT22;24866;50.248;8.252;2023-04-15T06:58:19;4.10;99.90
37408;DHT22;24866;50.248;8.252;2023-04-15T07:00:49;4.30;99.90
37408;DHT22;24866;50.248;8.252;2023-04-15T07:03:19;4.30;99.90
37408;DHT22;24866;50.248;8.252;2023-04-15T07:05:50;4.40;99.90
37408;DHT22;24866;50.248;8.252;2023-04-15T07:08:20;4.50;99.90
37408;DHT22;24866;50.248;8.252;2023-04-15T07:10:50;4.60;99.90
37408;DHT22;24866;50.248;8.252;2023-04-15T07:13:21;4.60;99.90
37408;DHT22;24866;50.248;8.252;2023-04-15T07:15:51;4.60;99.90
37408;DHT22;24866;50.248;8.252;2023-04-15T07:18:21;4.70;99.90
37408;DHT22;24866;50.248;8.252;2023-04-15T07:20:51;4.80;99.90
37408;DHT22;24866;50.248;8.252;2023-04-15T07:23:21;4.80;99.90
37408;DHT22;24866;50.248;8.252;2023-04-15T07:25:51;4.90;99.90
37408;DHT22;24866;50.248;8.252;2023-04-15T07:28:22;5.10;99.90
37408;DHT22;24866;50.248;8.252;2023-04-15T07:30:52;5.20;99.90
37408;DHT22;24866;50.248;8.252;2023-04-15T07:33:22;5.40;99.90
37408;DHT22;24866;50.248;8.252;2023-04-15T07:35:52;5.80;99.90
37408;DHT22;24866;50.248;8.252;2023-04-15T07:38:22;5.90;99.90
37408;DHT22;24866;50.248;8.252;2023-04-15T07:40:52;6.10;99.90
37408;DHT22;24866;50.248;8.252;2023-04-15T07:43:24;6.50;99.90
37408;DHT22;24866;50.248;8.252;2023-04-15T07:45:54;6.80;99.90
37408;DHT22;24866;50.248;8.252;2023-04-15T07:48:24;7.00;99.90
37408;DHT22;24866;50.248;8.252;2023-04-15T07:50:54;6.90;99.90
37408;DHT22;24866;50.248;8.252;2023-04-15T07:53:24;7.00;99.90
37408;DHT22;24866;50.248;8.252;2023-04-15T07:55:54;7.20;99.90
37408;DHT22;24866;50.248;8.252;2023-04-15T07:58:26;7.20;99.90
37408;DHT22;24866;50.248;8.252;2023-04-15T08:00:56;7.30;99.90
37408;DHT22;24866;50.248;8.252;2023-04-15T08:03:26;7.50;99.90
37408;DHT22;24866;50.248;8.252;2023-04-15T08:05:56;7.50;99.90
37408;DHT22;24866;50.248;8.252;2023-04-15T08:08:26;7.80;99.90
37408;DHT22;24866;50.248;8.252;2023-04-15T08:10:57;8.10;99.90
37408;DHT22;24866;50.248;8.252;2023-04-15T08:13:28;8.10;99.90
37408;DHT22;24866;50.248;8.252;2023-04-15T08:16:17;8.30;99.90
37408;DHT22;24866;50.248;8.252;2023-04-15T08:18:48;8.40;99.90
37408;DHT22;24866;50.248;8.252;2023-04-15T08:21:18;8.70;99.90
37408;DHT22;24866;50.248;8.252;2023-04-15T08:23:50;8.80;99.90
37408;DHT22;24866;50.248;8.252;2023-04-15T08:26:20;8.80;99.90
37408;DHT22;24866;50.248;8.252;2023-04-15T08:28:52;9.00;99.90
37408;DHT22;24866;50.248;8.252;2023-04-15T08:31:22;9.30;99.90
37408;DHT22;24866;50.248;8.252;2023-04-15T08:33:52;9.40;99.90
37408;DHT22;24866;50.248;8.252;2023-04-15T08:36:22;9.50;99.90
37408;DHT22;24866;50.248;8.252;2023-04-15T08:38:52;9.50;99.90
37408;DHT22;24866;50.248;8.252;2023-04-15T08:41:24;9.60;99.90
37408;DHT22;24866;50.248;8.252;2023-04-15T08:44:00;9.60;99.90
37408;DHT22;24866;50.248;8.252;2023-04-15T08:46:31;9.80;99.90
37408;DHT22;24866;50.248;8.252;2023-04-15T08:49:04;9.80;99.90
37408;DHT22;24866;50.248;8.252;2023-04-15T08:51:34;10.10;99.90
37408;DHT22;24866;50.248;8.252;2023-04-15T08:54:06;10.10;99.90
37408;DHT22;24866;50.248;8.252;2023-04-15T08:56:38;10.30;99.90
37408;DHT22;24866;50.248;8.252;2023-04-15T08:59:09;10.30;99.90
37408;DHT22;24866;50.248;8.252;2023-04-15T09:01:40;10.40;99.90
37408;DHT22;24866;50.248;8.252;2023-04-15T09:04:10;10.70;99.90
37408;DHT22;24866;50.248;8.252;2023-04-15T09:06:40;10.70;99.90
37408;DHT22;24866;50.248;8.252;2023-04-15T09:09:12;10.80;99.90
37408;DHT22;24866;50.248;8.252;2023-04-15T09:11:42;10.60;99.90
37408;DHT22;24866;50.248;8.252;2023-04-15T09:14:14;10.60;99.90
37408;DHT22;24866;50.248;8.252;2023-04-15T09:16:58;10.40;99.90
37408;DHT22;24866;50.248;8.252;2023-04-15T09:19:29;10.80;99.90
37408;DHT22;24866;50.248;8.252;2023-04-15T09:22:01;10.60;99.90
37408;DHT22;24866;50.248;8.252;2023-04-15T09:24:36;10.80;99.90
37408;DHT22;24866;50.248;8.252;2023-04-15T09:27:06;10.90;99.90
37408;DHT22;24866;50.248;8.252;2023-04-15T09:29:40;11.10;99.90
37408;DHT22;24866;50.248;8.252;2023-04-15T09:32:12;10.80;99.90
37408;DHT22;24866;50.248;8.252;2023-04-15T09:34:42;11.10;99.90
37408;DHT22;24866;50.248;8.252;2023-04-15T09:37:12;11.30;99.90
37408;DHT22;24866;50.248;8.252;2023-04-15T09:39:47;11.20;99.90
37408;DHT22;24866;50.248;8.252;2023-04-15T09:42:18;11.30;99.90
37408;DHT22;24866;50.248;8.252;2023-04-15T09:44:53;11.20;1.00
37408;DHT22;24866;50.248;8.252;2023-04-15T09:47:27;11.50;1.00
37408;DHT22;24866;50.248;8.252;2023-04-15T09:49:58;11.50;1.00
37408;DHT22;24866;50.248;8.252;2023-04-15T09:52:29;11.70;1.00
37408;DHT22;24866;50.248;8.252;2023-04-15T09:55:00;11.70;99.90
37408;DHT22;24866;50.248;8.252;2023-04-15T09:57:34;11.70;99.90
37408;DHT22;24866;50.248;8.252;2023-04-15T10:00:07;11.60;1.00
37408;DHT22;24866;50.248;8.252;2023-04-15T10:02:39;11.70;1.00
37408;DHT22;24866;50.248;8.252;2023-04-15T10:05:12;11.40;39.10
37408;DHT22;24866;50.248;8.252;2023-04-15T10:07:43;11.40;27.50
37408;DHT22;24866;50.248;8.252;2023-04-15T10:10:13;11.20;1.00
37408;DHT22;24866;50.248;8.252;2023-04-15T10:12:44;11.20;1.00
37408;DHT22;24866;50.248;8.252;2023-04-15T10:15:16;11.10;1.00
37408;DHT22;24866;50.248;8.252;2023-04-15T10:17:47;11.00;99.90
37408;DHT22;24866;50.248;8.252;2023-04-15T10:20:20;11.00;99.90
37408;DHT22;24866;50.248;8.252;2023-04-15T10:22:52;10.90;99.90
37408;DHT22;24866;50.248;8.252;2023-04-15T10:25:22;11.00;99.90
37408;DHT22;24866;50.248;8.252;2023-04-15T10:27:54;11.00;99.90
37408;DHT22;24866;50.248;8.252;2023-04-15T10:30:27;11.00;99.90
37408;DHT22;24866;50.248;8.252;2023-04-15T10:32:59;11.10;99.90
37408;DHT22;24866;50.248;8.252;2023-04-15T10:35:30;11.00;99.90
37408;DHT22;24866;50.248;8.252;2023-04-15T10:38:00;11.10;99.90
37408;DHT22;24866;50.248;8.252;2023-04-15T10:40:31;11.10;99.90
37408;DHT22;24866;50.248;8.252;2023-04-15T10:43:02;11.10;99.90
37408;DHT22;24866;50.248;8.252;2023-04-15T10:45:36;11.10;99.90
37408;DHT22;24866;50.248;8.252;2023-04-15T10:48:06;11.20;82.40
37408;DHT22;24866;50.248;8.252;2023-04-15T10:50:37;11.20;1.00
37408;DHT22;24866;50.248;8.252;2023-04-15T10:53:09;11.10;99.90
37408;DHT22;24866;50.248;8.252;2023-04-15T10:55:39;11.30;99.90
37408;DHT22;24866;50.248;8.252;2023-04-15T10:58:09;11.40;99.90
37408;DHT22;24866;50.248;8.252;2023-04-15T11:00:49;11.50;99.90
37408;DHT22;24866;50.248;8.252;2023-04-15T11:03:36;11.70;99.90
37408;DHT22;24866;50.248;8.252;2023-04-15T11:06:07;11.70;99.90
37408;DHT22;24866;50.248;8.252;2023-04-15T11:08:54;11.70;99.90
37408;DHT22;24866;50.248;8.252;2023-04-15T11:14:28;12.10;99.90
37408;DHT22;24866;50.248;8.252;2023-04-15T11:17:00;12.20;99.90
37408;DHT22;24866;50.248;8.252;2023-04-15T11:19:36;12.40;99.90
37408;DHT22;24866;50.248;8.252;2023-04-15T11:22:07;12.30;99.90
37408;DHT22;24866;50.248;8.252;2023-04-15T11:24:46;12.40;14.40
37408;DHT22;24866;50.248;8.252;2023-04-15T11:27:21;12.30;1.00
37408;DHT22;24866;50.248;8.252;2023-04-15T11:29:52;12.00;1.00
37408;DHT22;24866;50.248;8.252;2023-04-15T11:32:25;12.10;1.00
37408;DHT22;24866;50.248;8.252;2023-04-15T11:34:55;12.00;1.00
37408;DHT22;24866;50.248;8.252;2023-04-15T11:37:29;11.80;1.00
37408;DHT22;24866;50.248;8.252;2023-04-15T11:40:02;11.80;1.00
37408;DHT22;24866;50.248;8.252;2023-04-15T11:42:32;11.90;1.00
37408;DHT22;24866;50.248;8.252;2023-04-15T11:45:06;12.20;1.00
37408;DHT22;24866;50.248;8.252;2023-04-15T11:47:38;12.10;1.00
37408;DHT22;24866;50.248;8.252;2023-04-15T11:50:16;11.70;1.00
37408;DHT22;24866;50.248;8.252;2023-04-15T11:52:53;11.60;1.00
37408;DHT22;24866;50.248;8.252;2023-04-15T11:55:24;11.50;1.00
37408;DHT22;24866;50.248;8.252;2023-04-15T11:58:08;11.40;1.00
37408;DHT22;24866;50.248;8.252;2023-04-15T12:00:39;11.50;17.30
37408;DHT22;24866;50.248;8.252;2023-04-15T12:03:17;11.30;99.90
37408;DHT22;24866;50.248;8.252;2023-04-15T12:06:07;11.00;99.90
37408;DHT22;24866;50.248;8.252;2023-04-15T12:08:59;10.90;1.00
37408;DHT22;24866;50.248;8.252;2023-04-15T12:11:35;10.90;99.90
37408;DHT22;24866;50.248;8.252;2023-04-15T12:14:10;10.80;99.90
37408;DHT22;24866;50.248;8.252;2023-04-15T12:16:42;10.90;99.90
37408;DHT22;24866;50.248;8.252;2023-04-15T12:19:16;10.80;99.90
37408;DHT22;24866;50.248;8.252;2023-04-15T12:21:47;10.90;1.00
37408;DHT22;24866;50.248;8.252;2023-04-15T12:24:20;10.70;1.00
37408;DHT22;24866;50.248;8.252;2023-04-15T12:26:53;10.80;99.90
37408;DHT22;24866;50.248;8.252;2023-04-15T12:29:26;10.70;1.00
37408;DHT22;24866;50.248;8.252;2023-04-15T12:31:58;10.50;1.00
37408;DHT22;24866;50.248;8.252;2023-04-15T12:34:32;10.60;1.00
37408;DHT22;24866;50.248;8.252;2023-04-15T12:37:04;10.50;1.00
37408;DHT22;24866;50.248;8.252;2023-04-15T12:39:35;10.20;85.60
37408;DHT22;24866;50.248;8.252;2023-04-15T12:42:06;10.20;99.90
37408;DHT22;24866;50.248;8.252;2023-04-15T12:44:36;10.30;99.90
37408;DHT22;24866;50.248;8.252;2023-04-15T12:47:07;10.10;99.90
37408;DHT22;24866;50.248;8.252;2023-04-15T12:49:39;9.90;99.90
37408;DHT22;24866;50.248;8.252;2023-04-15T12:52:09;9.80;99.90
37408;DHT22;24866;50.248;8.252;2023-04-15T12:54:39;9.80;99.90
37408;DHT22;24866;50.248;8.252;2023-04-15T12:57:09;9.80;99.90
37408;DHT22;24866;50.248;8.252;2023-04-15T12:59:39;9.90;99.90
37408;DHT22;24866;50.248;8.252;2023-04-15T13:02:09;9.90;99.90
37408;DHT22;24866;50.248;8.252;2023-04-15T13:04:40;9.80;99.90
37408;DHT22;24866;50.248;8.252;2023-04-15T13:07:10;9.60;99.90
37408;DHT22;24866;50.248;8.252;2023-04-15T13:09:41;9.50;99.90
37408;DHT22;24866;50.248;8.252;2023-04-15T13:12:11;9.60;99.90
37408;DHT22;24866;50.248;8.252;2023-04-15T13:14:42;9.60;99.90
37408;DHT22;24866;50.248;8.252;2023-04-15T13:17:12;9.30;99.90
37408;DHT22;24866;50.248;8.252;2023-04-15T13:19:43;9.30;99.90
37408;DHT22;24866;50.248;8.252;2023-04-15T13:22:13;9.40;99.90
37408;DHT22;24866;50.248;8.252;2023-04-15T13:24:43;9.30;99.90
37408;DHT22;24866;50.248;8.252;2023-04-15T13:27:13;9.40;99.90
37408;DHT22;24866;50.248;8.252;2023-04-15T13:29:43;9.40;99.90
37408;DHT22;24866;50.248;8.252;2023-04-15T13:32:15;9.20;99.90
37408;DHT22;24866;50.248;8.252;2023-04-15T13:34:47;9.10;99.90
37408;DHT22;24866;50.248;8.252;2023-04-15T13:37:17;9.00;99.90
37408;DHT22;24866;50.248;8.252;2023-04-15T13:39:47;9.00;99.90
37408;DHT22;24866;50.248;8.252;2023-04-15T13:42:17;8.90;99.90
37408;DHT22;24866;50.248;8.252;2023-04-15T13:44:49;8.80;99.90
37408;DHT22;24866;50.248;8.252;2023-04-15T13:47:19;8.90;99.90
37408;DHT22;24866;50.248;8.252;2023-04-15T13:49:51;9.00;99.90
37408;DHT22;24866;50.248;8.252;2023-04-15T13:52:24;8.90;99.90
37408;DHT22;24866;50.248;8.252;2023-04-15T13:54:54;8.90;99.90
37408;DHT22;24866;50.248;8.252;2023-04-15T13:57:24;8.90;99.90
37408;DHT22;24866;50.248;8.252;2023-04-15T13:59:54;9.00;99.90
37408;DHT22;24866;50.248;8.252;2023-04-15T14:02:25;9.10;99.90
37408;DHT22;24866;50.248;8.252;2023-04-15T14:04:57;9.00;99.90
37408;DHT22;24866;50.248;8.252;2023-04-15T14:07:29;9.00;99.90
37408;DHT22;24866;50.248;8.252;2023-04-15T14:09:59;8.90;99.90
37408;DHT22;24866;50.248;8.252;2023-04-15T14:12:29;9.00;99.90
37408;DHT22;24866;50.248;8.252;2023-04-15T14:14:59;9.10;99.90
37408;DHT22;24866;50.248;8.252;2023-04-15T14:17:30;9.00;99.90
37408;DHT22;24866;50.248;8.252;2023-04-15T14:20:01;9.10;99.90
37408;DHT22;24866;50.248;8.252;2023-04-15T14:22:31;9.20;99.90
37408;DHT22;24866;50.248;8.252;2023-04-15T14:25:03;9.10;99.90
37408;DHT22;24866;50.248;8.252;2023-04-15T14:27:34;9.10;99.90
37408;DHT22;24866;50.248;8.252;2023-04-15T14:30:05;9.00;99.90
37408;DHT22;24866;50.248;8.252;2023-04-15T14:32:35;9.10;99.90
37408;DHT22;24866;50.248;8.252;2023-04-15T14:35:08;9.00;99.90
37408;DHT22;24866;50.248;8.252;2023-04-15T14:37:38;9.00;99.90
37408;DHT22;24866;50.248;8.252;2023-04-15T14:40:09;9.00;99.90
37408;DHT22;24866;50.248;8.252;2023-04-15T14:42:39;9.00;99.90
37408;DHT22;24866;50.248;8.252;2023-04-15T14:45:09;8.90;99.90
37408;DHT22;24866;50.248;8.252;2023-04-15T14:47:39;8.90;99.90
37408;DHT22;24866;50.248;8.252;2023-04-15T14:50:11;8.90;99.90
37408;DHT22;24866;50.248;8.252;2023-04-15T14:52:41;8.90;99.90
37408;DHT22;24866;50.248;8.252;2023-04-15T14:55:11;8.80;99.90
37408;DHT22;24866;50.248;8.252;2023-04-15T14:57:41;8.80;99.90
37408;DHT22;24866;50.248;8.252;2023-04-15T15:00:12;8.70;99.90
37408;DHT22;24866;50.248;8.252;2023-04-15T15:02:43;8.60;99.90
37408;DHT22;24866;50.248;8.252;2023-04-15T15:05:16;8.60;99.90
37408;DHT22;24866;50.248;8.252;2023-04-15T15:07:46;8.60;99.90
37408;DHT22;24866;50.248;8.252;2023-04-15T15:10:16;8.60;99.90
37408;DHT22;24866;50.248;8.252;2023-04-15T15:12:46;8.50;99.90
37408;DHT22;24866;50.248;8.252;2023-04-15T15:15:16;8.60;99.90
37408;DHT22;24866;50.248;8.252;2023-04-15T15:17:46;8.50;99.90
37408;DHT22;24866;50.248;8.252;2023-04-15T15:20:17;8.50;99.90
37408;DHT22;24866;50.248;8.252;2023-04-15T15:22:47;8.40;99.90
37408;DHT22;24866;50.248;8.252;2023-04-15T15:25:17;8.50;99.90
37408;DHT22;24866;50.248;8.252;2023-04-15T15:27:47;8.40;99.90
37408;DHT22;24866;50.248;8.252;2023-04-15T15:30:17;8.40;99.90
37408;DHT22;24866;50.248;8.252;2023-04-15T15:32:48;8.40;99.90
37408;DHT22;24866;50.248;8.252;2023-04-15T15:35:20;8.40;99.90
37408;DHT22;24866;50.248;8.252;2023-04-15T15:37:51;8.40;99.90
37408;DHT22;24866;50.248;8.252;2023-04-15T15:40:22;8.40;99.90
37408;DHT22;24866;50.248;8.252;2023-04-15T15:42:52;8.30;99.90
37408;DHT22;24866;50.248;8.252;2023-04-15T15:45:22;8.30;99.90
37408;DHT22;24866;50.248;8.252;2023-04-15T15:47:52;8.20;99.90
37408;DHT22;24866;50.248;8.252;2023-04-15T15:50:25;8.20;99.90
37408;DHT22;24866;50.248;8.252;2023-04-15T15:52:55;8.30;99.90
37408;DHT22;24866;50.248;8.252;2023-04-15T15:55:26;8.20;99.90
37408;DHT22;24866;50.248;8.252;2023-04-15T15:57:56;8.10;99.90
37408;DHT22;24866;50.248;8.252;2023-04-15T16:00:27;8.10;99.90
37408;DHT22;24866;50.248;8.252;2023-04-15T16:02:57;8.10;99.90
37408;DHT22;24866;50.248;8.252;2023-04-15T16:05:28;8.10;99.90
37408;DHT22;24866;50.248;8.252;2023-04-15T16:07:58;8.10;99.90
37408;DHT22;24866;50.248;8.252;2023-04-15T16:10:28;8.00;99.90
37408;DHT22;24866;50.248;8.252;2023-04-15T16:12:59;8.00;99.90
37408;DHT22;24866;50.248;8.252;2023-04-15T16:15:29;8.00;99.90